createdAt,value
2023-12-27T00:00:06.390Z,8.40
2023-12-27T00:02:33.784Z,8.50
2023-12-27T00:05:00.748Z,8.50
2023-12-27T00:07:27.706Z,8.50
2023-12-27T00:09:54.767Z,8.50
2023-12-27T00:12:21.804Z,8.50
2023-12-27T00:14:48.916Z,8.50
2023-12-27T00:17:15.960Z,8.50
2023-12-27T00:19:43.086Z,8.50
2023-12-27T00:22:10.081Z,8.50
2023-12-27T00:24:37.301Z,8.50
2023-12-27T00:27:04.516Z,8.50
2023-12-27T00:29:32.245Z,8.40
2023-12-27T00:31:59.160Z,8.50
2023-12-27T00:34:26.159Z,8.50
2023-12-27T00:36:53.083Z,8.50
2023-12-27T00:39:25.645Z,8.50
2023-12-27T00:41:53.761Z,8.50
2023-12-27T00:44:20.957Z,8.50
2023-12-27T00:46:48.033Z,8.50
2023-12-27T00:49:15.235Z,8.50
2023-12-27T00:51:42.496Z,8.50
2023-12-27T00:54:09.830Z,8.60
2023-12-27T00:56:37.107Z,8.60
2023-12-27T00:59:04.136Z,8.60
2023-12-27T01:01:31.804Z,8.60
2023-12-27T01:03:59.046Z,8.60
2023-12-27T01:06:26.542Z,8.60
2023-12-27T01:08:53.662Z,8.60
2023-12-27T01:11:20.687Z,8.60
2023-12-27T01:13:47.764Z,8.60
2023-12-27T01:16:16.583Z,8.50
2023-12-27T01:18:43.909Z,8.50
2023-12-27T01:21:11.167Z,8.50
2023-12-27T01:23:38.228Z,8.60
2023-12-27T01:26:05.283Z,8.50
2023-12-27T01:28:32.383Z,8.50
2023-12-27T01:30:59.613Z,8.60
2023-12-27T01:33:26.813Z,8.50
2023-12-27T01:35:54.354Z,8.60
2023-12-27T01:38:21.318Z,8.60
2023-12-27T01:40:49.895Z,8.60
2023-12-27T01:43:16.930Z,8.60
2023-12-27T01:45:44.529Z,8.60
2023-12-27T01:48:12.841Z,8.60
2023-12-27T01:50:40.730Z,8.50
2023-12-27T01:53:09.838Z,8.50
2023-12-27T01:55:37.125Z,8.50
2023-12-27T01:58:04.901Z,8.50
2023-12-27T02:00:32.128Z,8.50
2023-12-27T02:02:59.377Z,8.50
2023-12-27T02:05:26.628Z,8.50
2023-12-27T02:07:54.013Z,8.60
2023-12-27T02:10:21.447Z,8.50
2023-12-27T02:12:48.457Z,8.50
2023-12-27T02:15:15.474Z,8.50
2023-12-27T02:17:44.397Z,8.50
2023-12-27T02:20:11.837Z,8.40
2023-12-27T02:22:39.740Z,8.40
2023-12-27T02:25:07.289Z,8.40
2023-12-27T02:27:34.380Z,8.40
2023-12-27T02:30:01.634Z,8.40
2023-12-27T02:32:28.647Z,8.40
2023-12-27T02:34:55.778Z,8.50
2023-12-27T02:37:22.930Z,8.50
2023-12-27T02:39:49.979Z,8.50
2023-12-27T02:42:16.945Z,8.50
2023-12-27T02:44:43.985Z,8.50
2023-12-27T02:47:10.981Z,8.50
2023-12-27T02:49:38.266Z,8.50
2023-12-27T02:52:05.431Z,8.50
2023-12-27T02:54:32.533Z,8.40
2023-12-27T02:56:59.470Z,8.40
2023-12-27T02:59:26.554Z,8.40
2023-12-27T03:01:54.355Z,8.40
2023-12-27T03:04:21.402Z,8.40
2023-12-27T03:06:48.468Z,8.40
2023-12-27T03:09:15.492Z,8.40
2023-12-27T03:11:42.555Z,8.30
2023-12-27T03:14:09.543Z,8.40
2023-12-27T03:16:36.626Z,8.40
2023-12-27T03:19:03.742Z,8.40
2023-12-27T03:21:30.793Z,8.30
2023-12-27T03:23:57.902Z,8.30
2023-12-27T03:26:24.987Z,8.20
2023-12-27T03:28:52.037Z,8.20
2023-12-27T03:31:19.171Z,8.10
2023-12-27T03:33:46.276Z,8.20
2023-12-27T03:36:13.731Z,8.20
2023-12-27T03:38:40.828Z,8.10
2023-12-27T03:41:07.877Z,8.10
2023-12-27T03:43:34.866Z,8.10
2023-12-27T03:46:02.059Z,8.10
2023-12-27T03:48:29.141Z,8.10
2023-12-27T03:50:56.275Z,8.10
2023-12-27T03:53:23.270Z,8.00
2023-12-27T03:55:50.293Z,8.00
2023-12-27T03:58:17.296Z,8.00
2023-12-27T04:00:44.464Z,8.00
2023-12-27T04:03:11.627Z,8.10
2023-12-27T04:05:38.734Z,8.00
2023-12-27T04:08:06.281Z,8.00
2023-12-27T04:10:33.431Z,8.00
2023-12-27T04:13:00.570Z,8.00
2023-12-27T04:15:28.136Z,8.00
2023-12-27T04:17:55.496Z,8.00
2023-12-27T04:20:22.920Z,8.00
2023-12-27T04:22:50.021Z,8.10
2023-12-27T04:25:17.204Z,8.10
2023-12-27T04:27:44.566Z,8.10
2023-12-27T04:30:11.995Z,8.00
2023-12-27T04:32:39.253Z,8.00
2023-12-27T04:35:06.727Z,8.00
2023-12-27T04:37:33.730Z,7.90
2023-12-27T04:40:00.805Z,7.90
2023-12-27T04:42:27.828Z,7.80
2023-12-27T04:44:55.067Z,7.80
2023-12-27T04:47:22.062Z,7.80
2023-12-27T04:49:49.220Z,7.80
2023-12-27T04:52:16.690Z,7.80
2023-12-27T04:54:43.688Z,7.80
2023-12-27T04:57:10.932Z,7.80
2023-12-27T04:59:38.225Z,7.80
2023-12-27T05:02:05.272Z,7.80
2023-12-27T05:04:32.863Z,7.80
2023-12-27T05:07:00.046Z,7.80
2023-12-27T05:09:27.212Z,7.80
2023-12-27T05:11:54.289Z,7.80
2023-12-27T05:14:21.333Z,7.80
2023-12-27T05:16:48.512Z,7.80
2023-12-27T05:19:15.820Z,7.80
2023-12-27T05:21:43.178Z,7.80
2023-12-27T05:24:10.393Z,7.80
2023-12-27T05:26:37.661Z,7.70
2023-12-27T05:29:05.190Z,7.80
2023-12-27T05:31:32.368Z,7.80
2023-12-27T05:33:59.667Z,7.80
2023-12-27T05:36:26.886Z,7.90
2023-12-27T05:38:54.029Z,7.90
2023-12-27T05:41:26.071Z,7.90
2023-12-27T05:43:54.295Z,7.80
2023-12-27T05:46:21.400Z,7.80
2023-12-27T05:48:48.537Z,7.80
2023-12-27T05:51:15.812Z,7.80
2023-12-27T05:53:43.079Z,7.70
2023-12-27T05:56:10.389Z,7.70
2023-12-27T05:58:38.386Z,7.70
2023-12-27T06:01:05.505Z,7.70
2023-12-27T06:03:32.716Z,7.70
2023-12-27T06:05:59.781Z,7.60
2023-12-27T06:08:26.880Z,7.70
2023-12-27T06:10:53.916Z,7.60
2023-12-27T06:13:20.944Z,7.60
2023-12-27T06:15:48.011Z,7.60
2023-12-27T06:18:15.231Z,7.60
2023-12-27T06:20:42.522Z,7.60
2023-12-27T06:23:09.545Z,7.60
2023-12-27T06:25:36.614Z,7.50
2023-12-27T06:28:05.312Z,7.50
2023-12-27T06:30:32.468Z,7.50
2023-12-27T06:32:59.631Z,7.60
2023-12-27T06:35:26.971Z,7.60
2023-12-27T06:37:53.989Z,7.60
2023-12-27T06:40:21.010Z,7.60
2023-12-27T06:42:48.259Z,7.60
2023-12-27T06:45:15.429Z,7.60
2023-12-27T06:47:42.435Z,7.60
2023-12-27T06:50:09.874Z,7.60
2023-12-27T06:52:36.920Z,7.60
2023-12-27T06:55:04.036Z,7.60
2023-12-27T06:57:31.147Z,7.60
2023-12-27T06:59:58.132Z,7.60
2023-12-27T07:02:25.154Z,7.70
2023-12-27T07:04:52.349Z,7.70
2023-12-27T07:07:19.679Z,7.70
2023-12-27T07:09:46.892Z,7.70
2023-12-27T07:12:14.136Z,7.80
2023-12-27T07:14:41.394Z,7.80
2023-12-27T07:17:08.796Z,7.90
2023-12-27T07:19:35.971Z,7.90
2023-12-27T07:22:05.097Z,7.90
2023-12-27T07:24:32.224Z,7.90
2023-12-27T07:26:59.518Z,7.90
2023-12-27T07:29:26.771Z,7.90
2023-12-27T07:31:54.239Z,7.90
2023-12-27T07:34:21.353Z,8.10
2023-12-27T07:36:49.568Z,8.10
2023-12-27T07:39:17.362Z,8.10
2023-12-27T07:41:44.628Z,8.10
2023-12-27T07:44:11.710Z,8.10
2023-12-27T07:46:38.709Z,8.10
2023-12-27T07:49:05.947Z,8.10
2023-12-27T07:51:33.096Z,8.10
2023-12-27T07:54:01.176Z,8.00
2023-12-27T07:56:29.225Z,8.00
2023-12-27T07:58:56.329Z,7.90
2023-12-27T08:01:27.495Z,7.90
2023-12-27T08:03:56.447Z,7.80
2023-12-27T08:06:24.149Z,7.70
2023-12-27T08:08:51.521Z,7.70
2023-12-27T08:11:18.570Z,7.60
2023-12-27T08:13:45.601Z,7.60
2023-12-27T08:16:12.594Z,7.60
2023-12-27T08:18:39.933Z,7.60
2023-12-27T08:21:07.375Z,7.60
2023-12-27T08:23:34.946Z,7.60
2023-12-27T08:26:02.005Z,7.70
2023-12-27T08:28:29.093Z,7.80
2023-12-27T08:30:56.336Z,7.80
2023-12-27T08:33:23.555Z,7.80
2023-12-27T08:35:50.561Z,7.80
2023-12-27T08:38:17.737Z,7.80
2023-12-27T08:40:44.786Z,7.90
2023-12-27T08:43:11.774Z,7.90
2023-12-27T08:45:38.905Z,8.00
2023-12-27T08:48:06.213Z,8.00
2023-12-27T08:50:33.654Z,8.10
2023-12-27T08:53:00.689Z,8.10
2023-12-27T08:55:27.714Z,8.10
2023-12-27T08:57:54.978Z,8.20
2023-12-27T09:00:22.457Z,8.20
2023-12-27T09:02:49.651Z,8.30
2023-12-27T09:05:16.605Z,8.30
2023-12-27T09:07:43.694Z,8.40
2023-12-27T09:10:12.184Z,8.50
2023-12-27T09:12:42.405Z,8.60
2023-12-27T09:15:10.100Z,8.60
2023-12-27T09:17:37.346Z,8.60
2023-12-27T09:20:08.261Z,8.80
2023-12-27T09:22:35.745Z,8.80
2023-12-27T09:25:02.823Z,8.60
2023-12-27T09:27:30.938Z,8.70
2023-12-27T09:29:57.941Z,8.80
2023-12-27T09:32:25.166Z,8.90
2023-12-27T09:34:52.263Z,9.00
2023-12-27T09:37:19.395Z,9.10
2023-12-27T09:39:46.597Z,9.20
2023-12-27T09:42:13.873Z,9.20
2023-12-27T09:44:41.954Z,9.30
2023-12-27T09:47:11.556Z,9.30
2023-12-27T09:49:39.560Z,9.40
2023-12-27T09:52:08.222Z,9.40
2023-12-27T09:54:35.295Z,9.50
2023-12-27T09:57:07.793Z,9.50
2023-12-27T09:59:40.133Z,9.60
2023-12-27T10:02:08.906Z,9.70
2023-12-27T10:04:35.940Z,9.70
2023-12-27T10:07:04.074Z,9.80
2023-12-27T10:09:31.238Z,9.80
2023-12-27T10:11:58.339Z,9.90
2023-12-27T10:14:26.476Z,9.90
2023-12-27T10:16:53.501Z,10.00
2023-12-27T10:19:41.252Z,10.00
2023-12-27T10:22:12.039Z,10.10
2023-12-27T10:24:40.245Z,10.20
2023-12-27T10:27:08.297Z,10.20
2023-12-27T10:29:35.747Z,10.20
2023-12-27T10:32:03.732Z,10.20
2023-12-27T10:34:31.209Z,10.30
2023-12-27T10:36:59.880Z,10.30
2023-12-27T10:39:27.011Z,10.40
2023-12-27T10:41:54.391Z,10.50
2023-12-27T10:44:21.503Z,10.50
2023-12-27T10:46:50.482Z,10.60
2023-12-27T10:49:18.128Z,10.70
2023-12-27T10:51:46.382Z,10.70
2023-12-27T10:54:14.760Z,10.60
2023-12-27T10:56:42.479Z,10.70
2023-12-27T10:59:10.849Z,10.70
2023-12-27T11:01:39.833Z,10.70
2023-12-27T11:04:10.968Z,10.70
2023-12-27T11:06:39.107Z,10.80
2023-12-27T11:09:09.155Z,10.70
2023-12-27T11:11:40.128Z,10.60
2023-12-27T11:14:09.423Z,10.70
2023-12-27T11:16:37.312Z,10.70
2023-12-27T11:19:07.210Z,10.70
2023-12-27T11:21:38.440Z,10.70
2023-12-27T11:24:05.849Z,10.80
2023-12-27T11:26:36.080Z,10.70
2023-12-27T11:29:04.041Z,10.80
2023-12-27T11:31:31.281Z,10.70
2023-12-27T11:33:58.505Z,10.80
2023-12-27T11:36:26.703Z,10.80
2023-12-27T11:38:54.713Z,10.80
2023-12-27T11:41:21.779Z,10.80
2023-12-27T11:43:52.994Z,10.70
2023-12-27T11:46:29.264Z,10.70
2023-12-27T11:48:56.382Z,10.70
2023-12-27T11:51:27.357Z,10.80
2023-12-27T11:53:55.347Z,10.80
2023-12-27T11:56:22.508Z,10.70
2023-12-27T11:58:50.745Z,10.80
2023-12-27T12:01:28.515Z,10.90
2023-12-27T12:03:58.655Z,11.00
2023-12-27T12:06:41.010Z,11.00
2023-12-27T12:09:09.172Z,10.90
2023-12-27T12:11:36.848Z,10.90
2023-12-27T12:14:05.528Z,11.00
2023-12-27T12:16:33.948Z,11.00
2023-12-27T12:19:01.826Z,11.00
2023-12-27T12:21:30.558Z,11.00
2023-12-27T12:23:57.614Z,10.90
2023-12-27T12:26:25.431Z,10.90
2023-12-27T12:28:57.219Z,11.00
2023-12-27T12:31:24.503Z,11.00
2023-12-27T12:33:51.741Z,11.00
2023-12-27T12:36:19.584Z,11.10
2023-12-27T12:38:46.809Z,11.10
2023-12-27T12:41:14.163Z,11.10
2023-12-27T12:43:41.165Z,11.20
2023-12-27T12:46:09.062Z,11.20
2023-12-27T12:48:38.351Z,11.20
2023-12-27T12:51:12.122Z,11.30
2023-12-27T12:53:39.782Z,11.30
2023-12-27T12:56:08.443Z,11.30
2023-12-27T12:58:36.289Z,11.30
2023-12-27T13:01:05.302Z,11.20
2023-12-27T13:03:37.142Z,11.20
2023-12-27T13:06:04.948Z,11.30
2023-12-27T13:08:32.673Z,11.20
2023-12-27T13:11:00.214Z,11.20
2023-12-27T13:13:27.364Z,11.10
2023-12-27T13:15:54.441Z,11.10
2023-12-27T13:18:21.682Z,11.10
2023-12-27T13:20:48.860Z,11.10
2023-12-27T13:23:15.890Z,11.10
2023-12-27T13:25:44.189Z,11.10
2023-12-27T13:28:12.286Z,11.10
2023-12-27T13:30:40.007Z,11.10
2023-12-27T13:33:07.572Z,11.00
2023-12-27T13:35:34.953Z,10.90
2023-12-27T13:38:02.002Z,10.90
2023-12-27T13:40:29.156Z,10.90
2023-12-27T13:42:57.410Z,10.90
2023-12-27T13:45:24.973Z,10.80
2023-12-27T13:47:52.338Z,10.90
2023-12-27T13:50:19.461Z,10.90
2023-12-27T13:52:46.464Z,10.90
2023-12-27T13:55:13.533Z,11.00
2023-12-27T13:57:40.601Z,10.90
2023-12-27T14:00:12.656Z,10.80
2023-12-27T14:02:42.089Z,10.70
2023-12-27T14:05:10.034Z,10.60
2023-12-27T14:07:37.141Z,10.60
2023-12-27T14:10:06.002Z,10.50
2023-12-27T14:12:33.146Z,10.50
2023-12-27T14:15:02.144Z,10.50
2023-12-27T14:17:29.942Z,10.40
2023-12-27T14:19:58.264Z,10.30
2023-12-27T14:22:25.514Z,10.20
2023-12-27T14:24:52.555Z,10.10
2023-12-27T14:27:19.810Z,10.00
2023-12-27T14:29:48.394Z,9.90
2023-12-27T14:32:15.480Z,9.80
2023-12-27T14:34:42.814Z,9.80
2023-12-27T14:37:10.358Z,9.80
2023-12-27T14:39:37.990Z,9.70
2023-12-27T14:42:05.961Z,9.70
2023-12-27T14:44:36.262Z,9.60
2023-12-27T14:47:03.429Z,9.60
2023-12-27T14:49:30.585Z,9.60
2023-12-27T14:51:58.436Z,9.50
2023-12-27T14:54:25.406Z,9.50
2023-12-27T14:56:54.049Z,9.40
2023-12-27T14:59:21.017Z,9.40
2023-12-27T15:01:48.172Z,9.30
2023-12-27T15:04:15.357Z,9.20
2023-12-27T15:06:45.453Z,9.10
2023-12-27T15:09:15.913Z,9.00
2023-12-27T15:11:43.853Z,8.90
2023-12-27T15:14:10.867Z,8.80
2023-12-27T15:16:37.906Z,8.60
2023-12-27T15:19:05.091Z,8.50
2023-12-27T15:21:34.245Z,8.40
2023-12-27T15:24:02.239Z,8.40
2023-12-27T15:26:30.267Z,8.30
2023-12-27T15:28:57.295Z,8.20
2023-12-27T15:31:29.271Z,8.10
2023-12-27T15:34:00.394Z,8.00
2023-12-27T15:36:28.152Z,8.00
2023-12-27T15:38:57.246Z,8.00
2023-12-27T15:41:28.197Z,8.00
2023-12-27T15:44:00.530Z,8.00
2023-12-27T15:46:29.999Z,7.80
2023-12-27T15:48:57.535Z,7.80
2023-12-27T15:51:26.402Z,7.70
2023-12-27T15:53:57.204Z,7.70
2023-12-27T15:56:31.816Z,7.50
2023-12-27T15:59:00.156Z,7.40
2023-12-27T16:01:28.512Z,7.20
2023-12-27T16:03:56.550Z,7.10
2023-12-27T16:06:24.679Z,6.90
2023-12-27T16:08:52.745Z,6.70
2023-12-27T16:11:20.173Z,6.50
2023-12-27T16:13:47.991Z,6.40
2023-12-27T16:16:15.429Z,6.20
2023-12-27T16:18:42.975Z,6.10
2023-12-27T16:21:14.924Z,6.00
2023-12-27T16:23:42.738Z,5.90
2023-12-27T16:26:12.876Z,5.80
2023-12-27T16:28:42.005Z,5.70
2023-12-27T16:31:09.233Z,5.60
2023-12-27T16:33:36.386Z,5.50
2023-12-27T16:36:04.631Z,5.50
2023-12-27T16:38:31.819Z,5.40
2023-12-27T16:41:04.283Z,5.40
2023-12-27T16:43:34.010Z,5.40
2023-12-27T16:46:04.818Z,5.30
2023-12-27T16:48:32.411Z,5.20
2023-12-27T16:50:59.919Z,5.20
2023-12-27T16:53:27.048Z,5.10
2023-12-27T16:55:54.067Z,5.10
2023-12-27T16:58:21.480Z,5.00
2023-12-27T17:00:49.747Z,5.00
2023-12-27T17:03:18.513Z,4.90
2023-12-27T17:05:47.542Z,4.90
2023-12-27T17:08:16.024Z,4.80
2023-12-27T17:10:43.098Z,4.80
2023-12-27T17:13:10.119Z,4.70
2023-12-27T17:15:39.214Z,4.70
2023-12-27T17:18:06.931Z,4.60
2023-12-27T17:20:34.435Z,4.60
2023-12-27T17:23:02.488Z,4.60
2023-12-27T17:25:30.819Z,4.60
2023-12-27T17:27:58.177Z,4.60
2023-12-27T17:30:27.340Z,4.60
2023-12-27T17:32:54.850Z,4.60
2023-12-27T17:35:24.087Z,4.50
2023-12-27T17:37:51.868Z,4.60
2023-12-27T17:40:19.452Z,4.50
2023-12-27T17:42:46.782Z,4.50
2023-12-27T17:45:15.107Z,4.60
2023-12-27T17:47:42.383Z,4.60
2023-12-27T17:50:09.990Z,4.50
2023-12-27T17:52:37.264Z,4.40
2023-12-27T17:55:04.594Z,4.40
2023-12-27T17:57:34.611Z,4.40
2023-12-27T18:00:02.996Z,4.40
2023-12-27T18:02:30.095Z,4.30
2023-12-27T18:04:58.147Z,4.20
2023-12-27T18:07:25.255Z,4.10
2023-12-27T18:09:53.713Z,4.00
2023-12-27T18:12:20.867Z,4.00
2023-12-27T18:14:50.508Z,3.90
2023-12-27T18:17:17.906Z,3.90
2023-12-27T18:19:45.103Z,3.90
2023-12-27T18:22:12.435Z,3.90
2023-12-27T18:24:40.653Z,3.90
2023-12-27T18:27:08.385Z,3.90
2023-12-27T18:29:37.816Z,3.90
2023-12-27T18:32:05.758Z,3.80
2023-12-27T18:34:36.955Z,3.70
2023-12-27T18:37:04.388Z,3.70
2023-12-27T18:39:31.370Z,3.60
2023-12-27T18:41:58.599Z,3.60
2023-12-27T18:44:27.130Z,3.60
2023-12-27T18:46:54.174Z,3.60
2023-12-27T18:49:22.185Z,3.60
2023-12-27T18:51:49.528Z,3.60
2023-12-27T18:54:16.801Z,3.60
2023-12-27T18:56:43.913Z,3.50
2023-12-27T18:59:12.143Z,3.60
2023-12-27T19:01:39.390Z,3.50
2023-12-27T19:04:07.530Z,3.50
2023-12-27T19:06:34.818Z,3.40
2023-12-27T19:09:02.082Z,3.40
2023-12-27T19:11:30.347Z,3.40
2023-12-27T19:13:58.676Z,3.40
2023-12-27T19:16:29.299Z,3.40
2023-12-27T19:18:59.863Z,3.40
2023-12-27T19:21:27.294Z,3.50
2023-12-27T19:23:58.612Z,3.50
2023-12-27T19:26:25.783Z,3.50
2023-12-27T19:28:53.008Z,3.40
2023-12-27T19:31:20.484Z,3.40
2023-12-27T19:33:47.760Z,3.40
2023-12-27T19:36:15.153Z,3.30
2023-12-27T19:38:43.477Z,3.30
2023-12-27T19:41:12.693Z,3.20
2023-12-27T19:43:40.000Z,3.20
2023-12-27T19:46:08.486Z,3.10
2023-12-27T19:48:36.828Z,3.10
2023-12-27T19:51:04.072Z,3.00
2023-12-27T19:53:31.238Z,3.00
2023-12-27T19:55:58.348Z,3.00
2023-12-27T19:58:25.591Z,3.00
2023-12-27T20:00:53.447Z,2.90
2023-12-27T20:03:20.670Z,2.90
2023-12-27T20:05:47.855Z,2.90
2023-12-27T20:08:14.992Z,2.90
2023-12-27T20:10:42.058Z,2.90
2023-12-27T20:13:09.203Z,2.80
2023-12-27T20:18:09.460Z,2.80
2023-12-27T20:20:38.301Z,2.80
2023-12-27T20:23:05.293Z,2.80
2023-12-27T20:25:32.398Z,2.80
2023-12-27T20:27:59.630Z,2.80
2023-12-27T20:30:26.907Z,2.80
2023-12-27T20:32:55.727Z,2.80
2023-12-27T20:35:22.802Z,2.70
2023-12-27T20:37:49.912Z,2.70
2023-12-27T20:40:20.352Z,2.80
2023-12-27T20:42:51.991Z,2.80
2023-12-27T20:45:20.837Z,2.70
2023-12-27T20:47:48.444Z,2.70
2023-12-27T20:50:15.759Z,2.60
2023-12-27T20:52:42.844Z,2.70
2023-12-27T20:55:10.583Z,2.60
2023-12-27T20:57:37.715Z,2.60
2023-12-27T21:00:06.610Z,2.60
2023-12-27T21:02:36.154Z,2.50
2023-12-27T21:05:04.007Z,2.40
2023-12-27T21:07:32.693Z,2.40
2023-12-27T21:10:00.267Z,2.40
2023-12-27T21:12:27.707Z,2.50
2023-12-27T21:14:55.055Z,2.50
2023-12-27T21:17:23.819Z,2.50
2023-12-27T21:19:51.487Z,2.50
2023-12-27T21:22:18.748Z,2.40
2023-12-27T21:24:45.947Z,2.40
2023-12-27T21:27:13.236Z,2.30
2023-12-27T21:29:40.341Z,2.30
2023-12-27T21:32:07.596Z,2.30
2023-12-27T21:34:34.695Z,2.20
2023-12-27T21:37:01.884Z,2.30
2023-12-27T21:39:28.974Z,2.20
2023-12-27T21:41:58.312Z,2.10
2023-12-27T21:44:25.276Z,2.10
2023-12-27T21:46:52.324Z,2.00
2023-12-27T21:49:19.590Z,2.00
2023-12-27T21:51:47.395Z,2.00
2023-12-27T21:54:14.592Z,2.00
2023-12-27T21:56:43.163Z,2.00
2023-12-27T21:59:10.225Z,1.90
2023-12-27T22:01:37.729Z,1.90
2023-12-27T22:04:06.164Z,1.80
2023-12-27T22:06:33.548Z,1.80
2023-12-27T22:09:00.686Z,1.80
2023-12-27T22:11:27.909Z,1.80
2023-12-27T22:13:55.724Z,1.70
2023-12-27T22:16:24.360Z,1.70
2023-12-27T22:18:51.978Z,1.60
2023-12-27T22:21:19.951Z,1.60
2023-12-27T22:23:47.961Z,1.60
2023-12-27T22:26:15.535Z,1.60
2023-12-27T22:28:42.869Z,1.60
2023-12-27T22:31:10.275Z,1.60
2023-12-27T22:33:37.605Z,1.50
2023-12-27T22:36:07.701Z,1.60
2023-12-27T22:38:35.012Z,1.50
2023-12-27T22:41:02.069Z,1.50
2023-12-27T22:43:29.085Z,1.50
2023-12-27T22:45:56.121Z,1.60
2023-12-27T22:48:23.436Z,1.50
2023-12-27T22:50:50.794Z,1.50
2023-12-27T22:53:17.803Z,1.40
2023-12-27T22:55:44.874Z,1.40
2023-12-27T22:58:11.934Z,1.30
2023-12-27T23:00:39.506Z,1.30
2023-12-27T23:03:10.247Z,1.30
2023-12-27T23:05:37.686Z,1.20
2023-12-27T23:08:05.073Z,1.30
2023-12-27T23:10:32.108Z,1.20
2023-12-27T23:12:59.111Z,1.20
2023-12-27T23:15:27.350Z,1.10
2023-12-27T23:17:54.780Z,1.10
2023-12-27T23:20:22.001Z,1.10
2023-12-27T23:22:49.162Z,1.00
2023-12-27T23:25:16.270Z,0.90
2023-12-27T23:27:43.446Z,0.90
2023-12-27T23:30:11.295Z,0.90
2023-12-27T23:32:45.428Z,0.90
2023-12-27T23:35:18.162Z,0.90
2023-12-27T23:37:45.286Z,0.90
2023-12-27T23:40:12.977Z,0.80
2023-12-27T23:42:40.566Z,0.80
2023-12-27T23:45:08.342Z,0.70
2023-12-27T23:47:35.546Z,0.70
2023-12-27T23:50:03.009Z,0.70
2023-12-27T23:52:30.139Z,0.70
2023-12-27T23:54:57.216Z,0.70
2023-12-27T23:57:24.393Z,0.80
2023-12-27T23:59:51.501Z,0.80
